Noyabr'sk, Russia
Current Conditions -  °F | °C
As of 7:00 PM on Saturday 22 Nov 2014 (Local Time) from USRR Reporting Station
Broken Clouds Broken Clouds  
Wind Chill: -16°   Ceiling: 20000
Heat Index: -6°   Visibility: 4mi
Dew Point: -13°   Wind: 4mph
Humidity: 71%   Direction: 20°NNE
Pressure: 29.85"   Gusts: NA
Location:  64.34°N, 76.21°E
Report Text: USRR 221400Z 02002MPS 7000 SCT080 BKN200 M21/M25 Q1011 NOSIGRMK QFE753 07////40
Loading
Personal Weather Stations






























Interactive Weather Map New forecast layout! Learn more

10-Day Weather Forecast

Advertisements
Track Severe Weather on mobile